Time;durP1;ratioP1;P1;durP2;ratioP2;P2;SDS_P1;SDS_P2;PMS_P1;PMS_P2;Temp;Humidity;BMP_temperature;BMP_pressure;BME280_temperature;BME280_humidity;BME280_pressure;Samples;Min_cycle;Max_cycle;Signal;HPM_P1;HPM_P2
2022/06/20 00:00:58;;;;;;;8.10;2.00;;;;;;;14.55;82.06;101428.81;5033828;28;20030;-69
2022/06/20 00:03:38;;;;;;;11.27;2.10;;;;;;;14.57;81.24;101417.22;5033846;28;20026;-68
2022/06/20 00:06:03;;;;;;;9.88;2.00;;;;;;;14.57;81.52;101409.41;5033333;28;20033;-69
2022/06/20 00:08:29;;;;;;;8.65;1.98;;;;;;;14.51;81.89;101398.97;5033872;28;20431;-69
2022/06/20 00:10:54;;;;;;;8.63;2.10;;;;;;;14.43;82.32;101377.34;5033859;28;20041;-70
2022/06/20 00:13:27;;;;;;;9.43;2.20;;;;;;;14.57;81.61;101380.81;5034660;28;20075;-69
2022/06/20 00:16:00;;;;;;;6.93;2.10;;;;;;;14.48;82.08;101394.19;5035072;28;20033;-70
2022/06/20 00:18:26;;;;;;;9.02;2.45;;;;;;;14.29;83.29;101399.13;5033538;28;20112;-70
2022/06/20 00:20:51;;;;;;;10.75;2.28;;;;;;;14.33;82.92;101397.75;5034594;28;20117;-70
2022/06/20 00:23:16;;;;;;;15.05;2.40;;;;;;;14.28;82.70;101400.13;5033666;28;20032;-69
2022/06/20 00:25:42;;;;;;;12.13;2.50;;;;;;;14.26;83.21;101416.91;5034717;28;20021;-70
2022/06/20 00:28:08;;;;;;;17.98;2.58;;;;;;;14.30;82.86;101407.72;5033578;28;20065;-69
2022/06/20 00:30:36;;;;;;;12.18;2.42;;;;;;;14.25;83.13;101410.91;5034240;28;20389;-70
2022/06/20 00:33:01;;;;;;;9.77;2.28;;;;;;;14.37;82.95;101419.75;5034497;28;20025;-70
2022/06/20 00:35:27;;;;;;;10.55;2.28;;;;;;;14.39;82.85;101422.16;5034614;28;20036;-70
2022/06/20 00:37:57;;;;;;;16.05;2.17;;;;;;;14.35;82.43;101408.72;5033411;28;20025;-70
2022/06/20 00:40:32;;;;;;;10.07;2.35;;;;;;;14.26;82.71;101404.72;5034353;28;20030;-70
2022/06/20 00:42:59;;;;;;;5.80;1.80;;;;;;;14.20;83.05;101403.69;5033278;28;20396;-70
2022/06/20 00:45:27;;;;;;;11.88;2.72;;;;;;;14.21;83.26;101387.13;5032948;28;20026;-70
2022/06/20 00:48:01;;;;;;;13.23;2.90;;;;;;;14.30;83.22;101390.34;5034343;28;20495;-71
2022/06/20 00:50:29;;;;;;;10.45;2.40;;;;;;;14.29;82.43;101412.13;5033118;28;20028;-69
2022/06/20 00:53:08;;;;;;;11.48;2.30;;;;;;;14.22;82.77;101411.31;5034282;28;20025;-71
2022/06/20 00:55:38;;;;;;;13.02;2.85;;;;;;;14.05;83.48;101410.84;5034248;28;20021;-71
2022/06/20 00:58:15;;;;;;;10.25;2.38;;;;;;;14.02;84.80;101402.66;5032962;28;20029;-70
2022/06/20 01:00:41;;;;;;;10.38;2.30;;;;;;;14.09;83.80;101400.84;5032660;28;20031;-71
2022/06/20 01:03:24;;;;;;;9.50;2.17;;;;;;;13.91;84.43;101411.78;5033826;28;20026;-70
2022/06/20 01:05:52;;;;;;;8.60;2.30;;;;;;;13.93;84.25;101421.00;5033679;28;20057;-70
2022/06/20 01:08:24;;;;;;;12.43;2.25;;;;;;;13.86;84.00;101414.16;5032628;28;20027;-70
2022/06/20 01:10:58;;;;;;;12.52;2.63;;;;;;;13.86;84.38;101404.56;5032662;28;20022;-70
2022/06/20 01:13:24;;;;;;;9.23;2.15;;;;;;;13.82;84.71;101407.75;5032627;28;20031;-68
2022/06/20 01:15:52;;;;;;;9.82;2.35;;;;;;;13.76;85.03;101424.91;5033845;28;20104;-70
2022/06/20 01:18:23;;;;;;;11.13;2.65;;;;;;;13.79;85.16;101432.31;5034007;28;20097;-70
2022/06/20 01:20:51;;;;;;;8.38;1.75;;;;;;;13.75;84.23;101444.88;5033720;28;20056;-70
2022/06/20 01:23:32;;;;;;;15.35;2.45;;;;;;;13.89;84.25;101448.34;5033742;28;20197;-70
2022/06/20 01:26:21;;;;;;;8.65;2.30;;;;;;;14.04;83.08;101460.41;5033853;28;20400;-69
2022/06/20 01:28:51;;;;;;;7.55;1.88;;;;;;;14.04;83.32;101468.19;5033702;28;20473;-69
2022/06/20 01:31:20;;;;;;;12.80;2.35;;;;;;;14.08;82.90;101487.63;5032440;28;20032;-68
2022/06/20 01:33:47;;;;;;;7.78;1.80;;;;;;;13.99;83.37;101495.56;5032290;28;20025;-70
2022/06/20 01:39:00;;;;;;;8.18;2.03;;;;;;;14.10;83.37;101493.44;5033577;28;20048;-69
2022/06/20 01:44:15;;;;;;;14.00;2.13;;;;;;;14.01;82.42;101497.97;5033919;28;20489;-69
2022/06/20 01:46:40;;;;;;;7.50;1.80;;;;;;;14.18;81.86;101506.25;5035526;28;20026;-69
2022/06/20 01:49:13;;;;;;;10.02;1.88;;;;;;;14.12;81.53;101499.22;5038859;28;20037;-69
2022/06/20 01:51:43;;;;;;;9.20;1.80;;;;;;;14.03;81.43;101497.78;5038823;28;20103;-68
2022/06/20 01:54:10;;;;;;;8.48;1.77;;;;;;;14.07;81.36;101484.22;5040064;28;20053;-69
2022/06/20 01:56:36;;;;;;;7.47;1.70;;;;;;;13.96;80.95;101471.78;5038689;28;20029;-69
2022/06/20 01:59:06;;;;;;;9.13;2.45;;;;;;;13.94;81.14;101477.16;5038946;28;20465;-69
2022/06/20 02:01:34;;;;;;;7.05;1.90;;;;;;;14.01;80.84;101474.56;5039999;28;20025;-69
2022/06/20 02:04:04;;;;;;;12.32;1.73;;;;;;;14.01;81.28;101461.59;5038643;28;20416;-69
2022/06/20 02:06:30;;;;;;;9.63;1.95;;;;;;;14.00;81.69;101460.78;5040071;28;20473;-70
2022/06/20 02:08:58;;;;;;;12.50;1.92;;;;;;;13.99;80.63;101458.41;5038616;28;20469;-70
2022/06/20 02:11:23;;;;;;;9.00;1.83;;;;;;;13.93;80.25;101456.56;5040158;28;20017;-70
2022/06/20 02:13:52;;;;;;;9.93;1.90;;;;;;;13.86;79.50;101453.91;5038393;28;20033;-70
2022/06/20 02:16:20;;;;;;;7.60;1.90;;;;;;;14.00;79.40;101450.41;5039757;28;20029;-69
2022/06/20 02:18:49;;;;;;;7.28;1.40;;;;;;;14.03;78.93;101451.00;5039821;28;20036;-70
2022/06/20 02:21:19;;;;;;;7.97;1.75;;;;;;;14.04;79.42;101439.59;5038960;28;20037;-70
2022/06/20 02:23:49;;;;;;;8.98;1.88;;;;;;;14.00;78.57;101427.00;5039995;28;20079;-69
2022/06/20 02:26:17;;;;;;;7.70;1.63;;;;;;;14.08;78.00;101433.84;5039610;28;20030;-71
2022/06/20 02:28:48;;;;;;;9.90;1.80;;;;;;;13.93;78.75;101436.59;5039969;28;20026;-69
2022/06/20 02:31:15;;;;;;;10.40;1.67;;;;;;;13.90;78.45;101433.56;5039769;28;20483;-71
2022/06/20 02:33:41;;;;;;;11.27;1.90;;;;;;;13.91;78.96;101432.56;5039667;28;20025;-70
2022/06/20 02:36:07;;;;;;;6.07;1.52;;;;;;;13.84;78.76;101434.31;5038570;28;20476;-71
2022/06/20 02:38:34;;;;;;;9.75;2.03;;;;;;;13.77;78.74;101440.28;5038107;28;20417;-69
2022/06/20 02:41:00;;;;;;;8.95;1.70;;;;;;;13.67;79.57;101437.25;5037496;28;20017;-72
2022/06/20 02:43:43;;;;;;;8.27;1.67;;;;;;;13.66;79.45;101443.41;5039064;28;20026;-70
2022/06/20 02:46:13;;;;;;;7.25;1.80;;;;;;;13.69;79.06;101434.44;5039649;28;20333;-69
2022/06/20 02:48:42;;;;;;;7.38;1.67;;;;;;;13.59;79.60;101432.19;5039560;28;20028;-69
2022/06/20 02:51:13;;;;;;;7.20;2.13;;;;;;;13.59;80.06;101434.00;5039619;28;20044;-69
2022/06/20 02:53:47;;;;;;;10.95;1.80;;;;;;;13.58;78.89;101434.97;5038306;28;20131;-69
2022/06/20 02:56:16;;;;;;;11.63;2.03;;;;;;;13.43;80.31;101432.50;5038252;28;20143;-70
2022/06/20 02:58:58;;;;;;;8.68;1.80;;;;;;;13.45;80.13;101441.69;5036451;28;20026;-68
2022/06/20 03:01:44;;;;;;;11.50;1.95;;;;;;;13.38;80.21;101442.63;5036346;28;20477;-70
2022/06/20 03:04:10;;;;;;;8.95;1.83;;;;;;;13.28;80.97;101448.97;5035938;28;20064;-69
2022/06/20 03:06:40;;;;;;;6.85;1.77;;;;;;;13.21;81.01;101437.72;5035848;28;20036;-70
2022/06/20 03:09:05;;;;;;;8.13;1.70;;;;;;;13.12;81.76;101440.59;5035185;28;20101;-72
2022/06/20 03:11:34;;;;;;;9.10;1.92;;;;;;;13.13;81.59;101434.44;5036067;28;20105;-70
2022/06/20 03:14:03;;;;;;;14.18;1.85;;;;;;;13.17;81.19;101426.09;5036102;28;20460;-70
2022/06/20 03:16:28;;;;;;;7.55;1.70;;;;;;;13.12;81.21;101425.88;5034829;28;20021;-70
2022/06/20 03:18:57;;;;;;;6.85;1.83;;;;;;;13.03;81.44;101399.25;5034946;28;20449;-69
2022/06/20 03:21:28;;;;;;;4.38;1.77;;;;;;;13.11;81.77;101408.66;5036037;28;20379;-71
2022/06/20 03:23:53;;;;;;;8.73;2.00;;;;;;;13.18;81.55;101408.75;5035971;28;20052;-69
2022/06/20 03:26:21;;;;;;;10.95;1.92;;;;;;;13.08;81.46;101411.66;5036058;28;20029;-69
2022/06/20 03:28:47;;;;;;;6.55;1.73;;;;;;;13.01;82.75;101416.00;5035879;28;20044;-70
2022/06/20 03:31:12;;;;;;;7.72;1.75;;;;;;;13.10;82.14;101413.06;5033980;28;20013;-70
2022/06/20 03:33:39;;;;;;;11.32;2.00;;;;;;;13.05;81.84;101412.03;5034776;28;20025;-69
2022/06/20 03:36:15;;;;;;;8.40;2.00;;;;;;;13.06;82.63;101411.84;5034421;28;20029;-69
2022/06/20 03:38:44;;;;;;;7.35;1.90;;;;;;;13.12;81.93;101396.50;5035595;28;20499;-70
2022/06/20 03:41:12;;;;;;;8.30;1.75;;;;;;;13.24;81.22;101398.41;5035569;28;20389;-70
2022/06/20 03:43:40;;;;;;;8.82;2.17;;;;;;;13.36;80.79;101403.09;5034537;28;20021;-70
2022/06/20 03:46:11;;;;;;;6.82;2.08;;;;;;;13.39;80.70;101398.31;5035456;28;20477;-70
2022/06/20 03:48:47;;;;;;;6.63;1.67;;;;;;;13.43;80.01;101390.94;5034244;28;20366;-70
2022/06/20 03:51:27;;;;;;;6.57;1.70;;;;;;;13.41;79.53;101393.75;5034004;28;20022;-70
2022/06/20 03:53:58;;;;;;;16.98;2.20;;;;;;;13.38;80.43;101394.13;5035593;28;20154;-70
2022/06/20 03:56:35;;;;;;;6.10;1.85;;;;;;;13.40;79.97;101391.34;5034078;28;20055;-71
2022/06/20 03:59:02;;;;;;;10.77;1.98;;;;;;;13.58;80.08;101390.81;5034200;28;20029;-70
2022/06/20 04:01:45;;;;;;;5.13;1.80;;;;;;;13.51;80.19;101396.78;5035082;28;20033;-70
2022/06/20 04:04:17;;;;;;;11.00;2.15;;;;;;;13.50;80.09;101404.78;5033913;28;20181;-70
2022/06/20 04:06:57;;;;;;;8.65;1.90;;;;;;;13.51;80.46;101409.78;5033931;28;20543;-69
2022/06/20 04:12:42;;;;;;;7.82;2.00;;;;;;;13.64;80.37;101403.06;5035116;28;20063;-69
2022/06/20 04:15:31;;;;;;;9.00;1.90;;;;;;;13.79;79.51;101403.75;5035135;28;20374;-69
2022/06/20 04:18:29;;;;;;;8.45;2.10;;;;;;;13.92;79.37;101403.78;5034799;28;20062;-69
2022/06/20 04:21:01;;;;;;;6.88;1.73;;;;;;;13.94;78.55;101409.59;5035094;28;20380;-69
2022/06/20 04:23:46;;;;;;;9.00;2.20;;;;;;;13.82;79.23;101410.34;5034979;28;20029;-69
2022/06/20 04:26:22;;;;;;;11.40;2.40;;;;;;;13.93;79.54;101422.78;5034842;28;20441;-69
2022/06/20 04:29:03;;;;;;;7.55;2.17;;;;;;;14.10;78.21;101426.66;5034901;28;20369;-69
2022/06/20 04:31:48;;;;;;;6.72;2.00;;;;;;;14.07;78.39;101427.06;5033388;28;20025;-69
2022/06/20 04:34:19;;;;;;;12.35;2.55;;;;;;;14.14;77.31;101430.47;5034532;28;20148;-69
2022/06/20 04:37:13;;;;;;;8.63;2.30;;;;;;;14.23;76.89;101431.91;5033140;28;20021;-69
2022/06/20 04:39:54;;;;;;;10.93;2.40;;;;;;;14.09;77.36;101419.84;5033465;28;20128;-70
2022/06/20 04:42:37;;;;;;;9.40;2.30;;;;;;;14.21;76.85;101436.50;5034324;28;20159;-69
2022/06/20 04:45:49;;;;;;;10.55;2.60;;;;;;;14.17;76.80;101435.28;5033355;28;20074;-70
2022/06/20 04:48:20;;;;;;;16.13;2.55;;;;;;;14.27;76.36;101447.09;4995972;28;20589;-70
2022/06/20 04:51:06;;;;;;;9.55;2.17;;;;;;;14.21;77.12;101456.47;5012480;28;20033;-69
2022/06/20 04:53:34;;;;;;;6.63;2.30;;;;;;;14.34;77.02;101453.94;5028057;28;20091;-70
2022/06/20 04:56:03;;;;;;;12.60;2.67;;;;;;;14.34;76.55;101461.72;5034126;28;20063;-69
2022/06/20 04:58:48;;;;;;;11.48;2.60;;;;;;;14.30;76.71;101459.72;5033080;28;20080;-69
2022/06/20 05:01:14;;;;;;;11.50;2.75;;;;;;;14.49;75.88;101463.38;5032725;28;20457;-69
2022/06/20 05:03:43;;;;;;;12.02;2.72;;;;;;;14.54;75.33;101461.03;5032617;28;20063;-70
2022/06/20 05:06:14;;;;;;;14.73;2.45;;;;;;;14.61;75.99;101467.03;5032402;28;20041;-69
2022/06/20 05:09:05;;;;;;;14.85;2.58;;;;;;;14.91;75.16;101471.91;5032723;28;20029;-69
2022/06/20 05:11:35;;;;;;;7.70;2.67;;;;;;;15.14;73.98;101456.69;5032305;28;20116;-70
2022/06/20 05:14:07;;;;;;;11.27;2.70;;;;;;;16.35;69.79;101448.41;5033831;28;20068;-71
2022/06/20 05:16:37;;;;;;;12.43;2.50;;;;;;;17.09;66.23;101465.22;5032802;28;20029;-70
2022/06/20 05:19:08;;;;;;;8.35;2.30;;;;;;;15.98;69.70;101458.59;5032790;28;20120;-71
2022/06/20 05:21:39;;;;;;;8.48;2.38;;;;;;;15.43;71.89;101459.91;5032303;28;20367;-70
2022/06/20 05:24:16;;;;;;;11.10;2.40;;;;;;;15.36;72.44;101459.88;5033975;28;20075;-71
2022/06/20 05:26:45;;;;;;;10.32;2.33;;;;;;;15.87;70.75;101459.22;5033757;28;20040;-70
2022/06/20 05:29:30;;;;;;;12.88;2.45;;;;;;;17.57;65.27;101469.00;5032415;28;20021;-69
2022/06/20 05:32:02;;;;;;;10.77;2.40;;;;;;;18.98;60.46;101468.88;5032634;28;20465;-70
2022/06/20 05:34:45;;;;;;;9.40;2.70;;;;;;;21.50;51.58;101468.09;5032413;28;20021;-71
2022/06/20 05:37:19;;;;;;;10.23;3.03;;;;;;;23.59;46.14;101466.53;5032348;28;20443;-70
2022/06/20 05:40:03;;;;;;;11.25;2.45;;;;;;;23.99;44.92;101463.25;5032443;28;20057;-70
2022/06/20 05:42:28;;;;;;;8.68;2.42;;;;;;;24.24;44.52;101465.19;5032203;28;20040;-71
2022/06/20 05:44:54;;;;;;;10.43;2.33;;;;;;;22.67;46.41;101458.00;5033582;28;20030;-71
2022/06/20 05:47:34;;;;;;;10.85;2.40;;;;;;;23.50;45.37;101468.06;5015970;28;20543;-69
2022/06/20 05:50:14;;;;;;;9.70;2.75;;;;;;;27.51;37.12;101468.09;5033344;28;20472;-71
2022/06/20 05:52:41;;;;;;;7.38;2.30;;;;;;;21.94;47.27;101471.50;5032275;28;20119;-71
2022/06/20 05:55:18;;;;;;;13.43;2.97;;;;;;;21.76;48.58;101484.97;5033527;28;20022;-70
2022/06/20 05:57:47;;;;;;;12.27;2.65;;;;;;;23.84;44.00;101487.78;5033541;28;20025;-71
2022/06/20 06:00:18;;;;;;;15.55;3.00;;;;;;;19.97;51.92;101489.94;5032213;28;20133;-70
2022/06/20 06:02:51;;;;;;;10.07;2.47;;;;;;;23.16;46.49;101500.03;5032152;28;20053;-70
2022/06/20 06:05:36;;;;;;;11.05;2.85;;;;;;;22.43;46.58;101503.13;5031891;28;20064;-71
2022/06/20 06:08:35;;;;;;;7.65;2.60;;;;;;;20.64;51.71;101505.91;5033400;28;20025;-71
2022/06/20 06:11:10;;;;;;;10.00;2.65;;;;;;;19.28;56.15;101508.88;5033170;28;20027;-70
2022/06/20 06:13:41;;;;;;;16.60;3.35;;;;;;;21.10;50.64;101500.59;5033138;28;20527;-69
2022/06/20 06:19:12;;;;;;;13.82;3.03;;;;;;;19.93;52.29;101513.19;5033627;28;20377;-70
2022/06/20 06:21:38;;;;;;;10.77;2.55;;;;;;;21.25;48.39;101511.34;5031702;28;20055;-69
2022/06/20 06:24:06;;;;;;;14.15;3.03;;;;;;;22.88;45.88;101511.69;5032398;28;20207;-70
2022/06/20 06:26:33;;;;;;;13.55;3.30;;;;;;;22.22;47.67;101519.75;5032669;28;20431;-70
2022/06/20 06:29:03;;;;;;;10.48;2.63;;;;;;;25.13;40.28;101518.59;5031630;28;20021;-70
2022/06/20 06:31:36;;;;;;;11.52;2.40;;;;;;;23.40;42.30;101530.28;5031026;28;20021;-71
2022/06/20 06:34:14;;;;;;;12.30;2.83;;;;;;;24.82;40.33;101517.81;5033722;28;20025;-70
2022/06/20 06:36:44;;;;;;;11.23;2.60;;;;;;;21.88;46.14;101513.78;5035719;28;20025;-70
2022/06/20 06:39:32;;;;;;;11.77;2.60;;;;;;;21.01;48.10;101529.09;5035521;28;20022;-70
2022/06/20 06:42:00;;;;;;;11.15;2.30;;;;;;;20.22;50.44;101518.47;5036556;28;20034;-69
2022/06/20 06:44:40;;;;;;;8.73;2.20;;;;;;;20.81;49.74;101521.69;5035110;28;20022;-70
2022/06/20 06:47:20;;;;;;;11.82;2.85;;;;;;;20.65;50.86;101514.56;5036291;28;20071;-69
2022/06/20 06:49:50;;;;;;;8.18;2.65;;;;;;;21.34;48.35;101525.66;5037133;28;20029;-70
2022/06/20 06:52:24;;;;;;;11.07;2.92;;;;;;;20.75;50.51;101519.22;5035062;28;20048;-71
2022/06/20 06:55:04;;;;;;;11.73;2.45;;;;;;;20.20;51.75;101526.59;5035259;28;20032;-70
2022/06/20 06:57:47;;;;;;;10.98;2.60;;;;;;;20.51;51.64;101529.78;5036616;28;20029;-69
2022/06/20 07:00:25;;;;;;;9.82;2.65;;;;;;;20.19;51.88;101535.47;5036199;28;20025;-70
2022/06/20 07:02:55;;;;;;;8.18;2.38;;;;;;;20.14;52.02;101522.28;5036153;28;20551;-69
2022/06/20 07:05:37;;;;;;;10.90;2.78;;;;;;;20.84;50.46;101530.94;5034889;28;20071;-70
2022/06/20 07:08:13;;;;;;;11.88;2.55;;;;;;;20.91;50.97;101536.81;5036093;28;20065;-70
2022/06/20 07:10:55;;;;;;;12.90;2.90;;;;;;;20.37;51.82;101531.91;5034955;28;20025;-70
2022/06/20 07:13:23;;;;;;;11.60;2.60;;;;;;;20.48;50.86;101533.69;5034671;28;20026;-69
2022/06/20 07:15:53;;;;;;;11.90;2.60;;;;;;;19.86;53.31;101545.84;5034650;28;20115;-70
2022/06/20 07:18:35;;;;;;;10.48;2.92;;;;;;;21.08;50.52;101527.09;5034660;28;20061;-69
2022/06/20 07:21:02;;;;;;;7.57;2.30;;;;;;;20.89;50.29;101538.91;5035969;28;20354;-69
2022/06/20 07:23:27;;;;;;;14.07;2.67;;;;;;;20.79;50.15;101538.72;5034679;28;20357;-69
2022/06/20 07:25:52;;;;;;;9.63;2.63;;;;;;;19.00;52.97;101533.09;5034572;28;20059;-69
2022/06/20 07:28:34;;;;;;;8.38;2.53;;;;;;;18.36;54.78;101540.56;5034372;28;20029;-69
2022/06/20 07:31:09;;;;;;;9.65;2.67;;;;;;;18.11;56.40;101547.72;5035838;28;20100;-71
2022/06/20 07:33:44;;;;;;;11.32;2.63;;;;;;;17.88;56.83;101540.50;5035807;28;20104;-69
2022/06/20 07:36:14;;;;;;;11.40;2.42;;;;;;;18.75;55.06;101558.63;5034419;28;20026;-69
2022/06/20 07:39:17;;;;;;;10.30;2.53;;;;;;;18.65;54.50;101523.28;5034362;28;20469;-69
2022/06/20 07:41:58;;;;;;;6.30;2.45;;;;;;;20.04;51.83;101549.09;5035746;28;20053;-69
2022/06/20 07:44:53;;;;;;;10.52;2.35;;;;;;;20.77;49.11;101552.06;5034960;28;20021;-69
2022/06/20 07:47:25;;;;;;;9.63;2.85;;;;;;;20.67;49.65;101547.44;5030325;28;20037;-70
2022/06/20 07:49:54;;;;;;;7.95;2.05;;;;;;;21.23;48.18;101546.78;5034224;28;20056;-70
2022/06/20 07:52:25;;;;;;;7.70;2.22;;;;;;;21.83;47.56;101556.63;5034880;28;20026;-69
2022/06/20 07:54:56;;;;;;;9.55;2.55;;;;;;;22.45;45.56;101551.06;5033814;28;20021;-69
2022/06/20 07:57:51;;;;;;;5.63;2.20;;;;;;;22.33;46.23;101557.50;5034174;28;20033;-69
2022/06/20 08:00:24;;;;;;;12.65;2.92;;;;;;;22.52;44.93;101550.88;5034997;28;20030;-69
2022/06/20 08:02:57;;;;;;;10.18;2.30;;;;;;;21.91;45.50;101550.94;5033795;28;20032;-69
2022/06/20 08:05:27;;;;;;;9.38;2.33;;;;;;;21.85;46.73;101546.66;5034865;28;20121;-70
2022/06/20 08:08:05;;;;;;;7.80;2.15;;;;;;;21.86;45.37;101545.59;5033705;28;20047;-70
2022/06/20 08:10:42;;;;;;;11.20;2.40;;;;;;;20.94;45.75;101552.91;5035195;28;20134;-70
2022/06/20 08:13:37;;;;;;;9.70;2.38;;;;;;;20.06;48.50;101548.88;5033884;28;20041;-70
2022/06/20 08:16:17;;;;;;;7.78;2.03;;;;;;;19.59;49.18;101557.56;5035337;28;20031;-70
2022/06/20 08:18:43;;;;;;;9.15;2.50;;;;;;;19.28;51.01;101558.66;5033695;28;20033;-70
2022/06/20 08:21:15;;;;;;;8.27;2.70;;;;;;;19.49;51.46;101570.41;5034352;28;20049;-70
2022/06/20 08:23:46;;;;;;;8.43;2.55;;;;;;;20.87;49.22;101552.25;5032743;28;20025;-70
2022/06/20 08:26:28;;;;;;;10.70;2.60;;;;;;;21.55;46.29;101545.22;5034930;28;20380;-69
2022/06/20 08:28:57;;;;;;;10.23;2.30;;;;;;;21.87;44.75;101557.75;5034937;28;20033;-70
2022/06/20 08:31:33;;;;;;;8.70;2.22;;;;;;;21.80;44.92;101552.63;5034470;28;20029;-70
2022/06/20 08:34:15;;;;;;;7.80;2.17;;;;;;;22.09;43.96;101561.16;5033503;28;20163;-69
2022/06/20 08:36:48;;;;;;;7.18;2.10;;;;;;;22.79;42.14;101560.59;5034288;28;20074;-69
2022/06/20 08:39:43;;;;;;;6.47;1.90;;;;;;;22.73;40.35;101570.31;5034485;28;20029;-70
2022/06/20 08:42:35;;;;;;;7.35;2.10;;;;;;;22.40;40.37;101563.38;5034450;28;20071;-70
2022/06/20 08:45:15;;;;;;;7.15;1.60;;;;;;;22.97;39.11;101568.19;5034614;28;20028;-70
2022/06/20 08:48:13;;;;;;;8.25;1.63;;;;;;;20.99;40.06;101567.16;5033269;28;20392;-70
2022/06/20 08:51:07;;;;;;;9.57;1.50;;;;;;;22.35;37.62;101550.94;5034641;28;20031;-69
2022/06/20 08:54:03;;;;;;;5.80;1.60;;;;;;;23.26;36.18;101567.88;5033981;28;20029;-69
2022/06/20 08:56:44;;;;;;;4.53;1.60;;;;;;;23.17;35.73;101555.16;5032654;28;20036;-69
2022/06/20 08:59:37;;;;;;;5.63;1.50;;;;;;;23.30;35.71;101564.47;5032880;28;20511;-69
2022/06/20 09:02:14;;;;;;;4.20;1.05;;;;;;;23.80;34.36;101575.66;5033795;28;20068;-70
2022/06/20 09:05:07;;;;;;;3.05;1.35;;;;;;;23.30;35.90;101569.75;5032795;28;20103;-69
2022/06/20 09:07:45;;;;;;;;;;;;;;;23.51;34.59;101578.63;5033004;28;20136;-69
2022/06/20 09:10:37;;;;;;;5.45;1.50;;;;;;;23.51;35.32;101580.47;5033793;28;19908;-69
2022/06/20 09:13:21;;;;;;;2.97;1.17;;;;;;;23.13;35.58;101572.56;5034123;28;20080;-69
2022/06/20 09:16:08;;;;;;;8.73;1.35;;;;;;;23.65;35.40;101586.88;5031957;28;20112;-69
2022/06/20 09:18:52;;;;;;;7.75;1.98;;;;;;;23.49;36.42;101593.09;5033446;28;20039;-70
2022/06/20 09:21:29;;;;;;;4.90;1.52;;;;;;;24.18;34.34;101590.34;5033915;28;20021;-70
2022/06/20 09:24:01;;;;;;;6.38;1.88;;;;;;;23.83;34.81;101593.59;5034066;28;20029;-69
2022/06/20 09:26:42;;;;;;;4.57;1.80;;;;;;;24.66;34.94;101596.31;5033744;28;20030;-70
2022/06/20 09:29:20;;;;;;;6.63;1.85;;;;;;;24.71;34.62;101604.22;5033793;28;20061;-69
2022/06/20 09:32:04;;;;;;;8.00;1.88;;;;;;;23.85;35.48;101591.50;5033665;28;20021;-69
2022/06/20 09:34:43;;;;;;;9.32;1.90;;;;;;;23.89;36.17;101602.34;5032740;28;20030;-69
2022/06/20 09:37:31;;;;;;;7.68;1.58;;;;;;;23.49;36.55;101595.75;5032315;28;20021;-69
2022/06/20 09:40:09;;;;;;;6.68;1.98;;;;;;;23.28;38.29;101592.16;5030261;28;20500;-69
2022/06/20 09:42:48;;;;;;;15.38;2.08;;;;;;;23.14;38.67;101595.22;5032155;28;20069;-69
2022/06/20 09:45:23;;;;;;;8.10;2.25;;;;;;;23.96;36.55;101606.31;5032195;28;20034;-69
2022/06/20 09:48:11;;;;;;;9.38;1.77;;;;;;;23.33;35.78;101605.38;5033402;28;20053;-70
2022/06/20 09:50:49;;;;;;;6.90;2.03;;;;;;;22.33;38.56;101599.63;5032986;28;20048;-69
2022/06/20 09:53:22;;;;;;;6.47;1.90;;;;;;;21.57;41.41;101608.06;5033495;28;20071;-70
2022/06/20 09:56:05;;;;;;;8.52;2.22;;;;;;;22.67;39.94;101608.16;5033326;28;20087;-71
2022/06/20 09:58:54;;;;;;;7.18;2.17;;;;;;;23.31;37.46;101610.13;5032735;28;20484;-70
2022/06/20 10:01:52;;;;;;;4.82;1.73;;;;;;;24.87;35.55;101610.34;5031075;28;20057;-70
2022/06/20 10:04:46;;;;;;;8.32;1.83;;;;;;;23.72;37.10;101613.06;5028170;28;20060;-70
2022/06/20 10:07:19;;;;;;;7.57;1.95;;;;;;;24.01;37.42;101616.13;5032714;28;20068;-70
2022/06/20 10:09:59;;;;;;;7.30;1.95;;;;;;;24.48;35.73;101623.22;5035747;28;20388;-70
2022/06/20 10:12:48;;;;;;;7.97;2.38;;;;;;;24.35;36.43;101621.03;5035977;28;20123;-70
2022/06/20 10:15:37;;;;;;;11.70;2.17;;;;;;;24.32;37.55;101625.78;5034184;28;20076;-71
2022/06/20 10:18:08;;;;;;;9.40;1.95;;;;;;;23.39;37.59;101625.47;5025891;28;20538;-70
2022/06/20 10:20:40;;;;;;;9.68;2.15;;;;;;;24.25;37.45;101630.47;5037161;28;20033;-71
2022/06/20 10:23:30;;;;;;;11.00;2.13;;;;;;;22.73;39.47;101634.34;5037807;28;20036;-70
2022/06/20 10:26:43;;;;;;;12.48;2.17;;;;;;;21.45;41.77;101637.06;5037214;28;20029;-69
2022/06/20 10:29:17;;;;;;;7.45;2.05;;;;;;;23.65;38.92;101635.16;5037290;28;20468;-71
2022/06/20 10:31:52;;;;;;;5.40;2.03;;;;;;;24.33;36.67;101630.00;5035804;28;20076;-70
2022/06/20 10:34:37;;;;;;;6.53;2.35;;;;;;;24.73;36.15;101635.69;5036998;28;20531;-71
2022/06/20 10:37:27;;;;;;;6.78;2.00;;;;;;;22.69;39.35;101619.25;5037143;28;20036;-70
2022/06/20 10:39:55;;;;;;;10.50;2.20;;;;;;;22.44;39.73;101639.03;5037430;28;20071;-70
2022/06/20 10:42:30;;;;;;;7.38;1.70;;;;;;;22.63;38.88;101642.13;5035263;28;20075;-72
2022/06/20 10:45:15;;;;;;;8.45;1.95;;;;;;;23.48;37.93;101644.25;5036556;28;20477;-71
2022/06/20 10:47:57;;;;;;;5.25;1.80;;;;;;;23.39;38.64;101647.38;5036640;28;20021;-70
2022/06/20 10:50:58;;;;;;;6.47;2.05;;;;;;;24.00;36.91;101647.03;5036387;28;20021;-71
2022/06/20 10:53:32;;;;;;;11.75;2.38;;;;;;;24.55;37.11;101647.53;5035155;28;20029;-70
2022/06/20 10:56:18;;;;;;;5.88;1.77;;;;;;;25.29;34.86;101648.19;5035183;28;20021;-71
2022/06/20 10:59:09;;;;;;;7.30;1.92;;;;;;;24.13;36.92;101652.88;5034468;28;20037;-70
2022/06/20 11:01:48;;;;;;;8.82;2.45;;;;;;;23.78;38.85;101649.00;5036175;28;20075;-70
2022/06/20 11:04:48;;;;;;;6.70;1.95;;;;;;;24.00;37.26;101633.03;5034754;28;20064;-70
2022/06/20 11:07:13;;;;;;;4.85;1.88;;;;;;;23.22;38.37;101648.53;5036336;28;20030;-69
2022/06/20 11:10:01;;;;;;;7.30;2.00;;;;;;;23.31;37.52;101647.84;5036369;28;20456;-71
2022/06/20 11:12:36;;;;;;;8.52;1.90;;;;;;;23.23;38.70;101626.41;5036457;28;20037;-71
2022/06/20 11:15:40;;;;;;;7.85;1.90;;;;;;;22.14;40.31;101644.66;5035170;28;20120;-71
2022/06/20 11:18:24;;;;;;;6.28;2.10;;;;;;;21.84;41.48;101639.78;5036648;28;20468;-71
2022/06/20 11:21:12;;;;;;;9.30;2.10;;;;;;;21.71;42.81;101645.38;5033915;28;20091;-70
2022/06/20 11:23:48;;;;;;;8.43;2.30;;;;;;;21.29;43.65;101651.78;5031710;28;20040;-70
2022/06/20 11:26:50;;;;;;;8.70;2.03;;;;;;;21.38;43.82;101644.34;5035484;28;20025;-69
2022/06/20 11:29:28;;;;;;;7.88;1.85;;;;;;;22.81;42.60;101664.72;5001871;28;20040;-70
2022/06/20 11:32:15;;;;;;;12.85;2.10;;;;;;;23.26;41.24;101658.34;5034280;28;20026;-70
2022/06/20 11:34:49;;;;;;;10.50;2.10;;;;;;;23.92;40.25;101651.97;5036319;28;20039;-70
2022/06/20 11:37:44;;;;;;;8.85;2.45;;;;;;;23.13;41.65;101656.09;5035729;28;20493;-71
2022/06/20 11:41:02;;;;;;;12.73;2.42;;;;;;;23.90;39.76;101660.16;5036196;28;20112;-70
2022/06/20 11:44:12;;;;;;;7.45;2.35;;;;;;;24.24;38.56;101663.25;5010193;28;20037;-71
2022/06/20 11:46:56;;;;;;;8.32;2.45;;;;;;;24.18;38.31;101658.97;5035008;28;20028;-70
2022/06/20 11:49:42;;;;;;;15.63;2.13;;;;;;;24.90;36.75;101673.28;5035401;28;20029;-71
2022/06/20 11:52:22;;;;;;;11.65;1.90;;;;;;;24.54;37.85;101661.78;5035460;28;20535;-71
2022/06/20 11:55:08;;;;;;;8.07;1.90;;;;;;;24.72;37.82;101669.25;5035429;28;20502;-71
2022/06/20 11:57:41;;;;;;;6.75;1.92;;;;;;;24.21;37.12;101666.41;5034278;28;20388;-70
2022/06/20 12:00:36;;;;;;;6.18;1.95;;;;;;;22.88;40.41;101667.16;5035188;28;20022;-71
2022/06/20 12:03:29;;;;;;;9.13;2.30;;;;;;;22.50;41.72;101676.75;5033814;28;20034;-70
2022/06/20 12:06:19;;;;;;;9.50;2.13;;;;;;;22.60;42.07;101678.69;5034886;28;20077;-71
2022/06/20 12:08:56;;;;;;;6.40;1.92;;;;;;;22.90;39.66;101675.59;5034246;28;20057;-71
2022/06/20 12:11:28;;;;;;;11.20;2.35;;;;;;;23.64;39.37;101673.13;5033718;28;20132;-71
2022/06/20 12:14:24;;;;;;;12.10;2.47;;;;;;;23.42;40.20;101681.16;5032398;28;20429;-71
2022/06/20 12:17:00;;;;;;;8.18;2.03;;;;;;;23.84;39.51;101675.16;5033515;28;20653;-72